Pl Grove, Alabama
Current Conditions -  °F | °C
As of 4:53 PM on Sunday 21 Dec 2014 (Local Time) from KBHM Reporting Station
Overcast Overcast  
Wind Chill: 54°   Ceiling: 2100
Heat Index: 54°   Visibility: 10mi
Dew Point: 46°   Wind: 8mph
Humidity: 75%   Direction: 110°ESE
Pressure: 30.06"   Gusts: NA
Location:  33.4901°N, 86.9786°W
Report Text: KBHM 212253Z 11007KT 10SM OVC021 12/08 A3006 RMK AO2 SLP180 T01220078
Loading
Personal Weather Stations






























Interactive Weather Map New forecast layout! Learn more

10-Day Weather Forecast

Advertisements
Track Severe Weather on mobile